Warren, ME (04864)

12:21 PM EST on February 14, 2016 (GMT -0500)
Thomaston | | Change Station
CLOSE
Current Station
Personal Weather Station
Location: Thomaston, ME
Elevation: 157 ft
Nearby Weather Stations

Elev 157 ft 44.09 °N, 69.19 °W | Updated 9 seconds ago

Clear
Clear
3.8 °F
Feels Like -11 °F
N
10.0
Wind Variable Wind from SSW
Gusts 17.0 mph

Today
High -- | Low -- °F
--% Chance of Precip.
Yesterday
High -- | Low -- °F
Precip. -- in
Pressure 30.24 in
Visibility 10.0 miles
Clouds Clear
Windchill -11 °F
Dew Point -1 °F
Humidity 80%
Rainfall 0.00 in
Snow Depth Not available.
6:38 AM 5:04 PM
Waxing Crescent, 43% visible
METAR KRKD 141656Z AUTO 30010G19KT 10SM CLR M16/M26 A3024 RMK AO2 SLP240 T11611261 FZRANO
Pressure 30.24 in
Visibility 10.0 miles
Clouds Clear
Windchill -11 °F
Dew Point -1 °F
Humidity 80%
Rainfall 0.00 in
Snow Depth Not available.
6:38 AM 5:04 PM
Waxing Crescent, 43% visible
METAR KRKD 141656Z AUTO 30010G19KT 10SM CLR M16/M26 A3024 RMK AO2 SLP240 T11611261 FZRANO

10-Day Weather Forecast

Almanac

Astronomy

Feb. 14, 2016 Rise Set
Actual Time
Civil Twilight
Nautical Twilight
Astronomical Twilight
Moon
Length of Visible Light
Length of Day
Tomorrow will be .
, % of the Moon is Illuminated

Today's Extremes

State Highs State Lows

Community

WunderPhotos

Upload Photos

1,892,856 photos uploaded!

WunderBlog® & News

Nearby

Air Quality

  Air Quality AQ Index Pollutant
Not available.

Snow Depth

Station Depth Elevation

Earthquake Activity

City Distance Mag. Time & Date
Minimum magnitude displayed is 2.5.

Coastal Water Temperatures

Place Temperature

Stations

Nearby Weather Stations

Station Location Temp. Windchill Dew Point Humidity Wind Precip. Elev Updated Type
                   

Watches & Warnings

There are currently no watches in effect.